createdAt,value
2024-02-19T00:00:55.839Z,5.18
2024-02-19T00:03:22.560Z,5.55
2024-02-19T00:05:51.822Z,5.97
2024-02-19T00:08:18.348Z,5.30
2024-02-19T00:10:44.892Z,4.80
2024-02-19T00:13:11.410Z,4.75
2024-02-19T00:15:37.826Z,4.80
2024-02-19T00:18:04.569Z,5.00
2024-02-19T00:20:30.992Z,5.13
2024-02-19T00:22:57.371Z,4.15
2024-02-19T00:25:23.936Z,4.40
2024-02-19T00:27:50.444Z,5.20
2024-02-19T00:30:17.482Z,4.40
2024-02-19T00:32:44.014Z,4.38
2024-02-19T00:35:10.469Z,4.80
2024-02-19T00:37:36.888Z,3.45
2024-02-19T00:40:05.627Z,3.83
2024-02-19T00:42:32.039Z,3.22
2024-02-19T00:44:59.169Z,2.90
2024-02-19T00:47:25.687Z,2.90
2024-02-19T00:49:52.342Z,3.20
2024-02-19T00:52:19.041Z,2.85
2024-02-19T00:54:45.835Z,3.00
2024-02-19T00:57:12.314Z,3.10
2024-02-19T00:59:38.704Z,2.97
2024-02-19T01:02:05.189Z,4.63
2024-02-19T01:04:31.686Z,4.80
2024-02-19T01:06:58.206Z,5.30
2024-02-19T01:09:24.585Z,4.47
2024-02-19T01:11:50.994Z,3.80
2024-02-19T01:14:17.405Z,2.70
2024-02-19T01:16:44.224Z,2.20
2024-02-19T01:19:10.755Z,2.30
2024-02-19T01:21:37.908Z,2.53
2024-02-19T01:24:04.379Z,2.70
2024-02-19T01:26:31.416Z,3.13
2024-02-19T01:28:57.827Z,3.30
2024-02-19T01:31:24.397Z,3.30
2024-02-19T01:33:50.862Z,2.90
2024-02-19T01:36:17.352Z,2.70
2024-02-19T01:38:43.777Z,2.55
2024-02-19T01:41:10.165Z,2.72
2024-02-19T01:43:37.675Z,2.67
2024-02-19T01:46:04.361Z,3.22
2024-02-19T01:48:30.906Z,4.05
2024-02-19T01:50:57.734Z,4.43
2024-02-19T01:53:25.032Z,4.60
2024-02-19T01:55:52.525Z,5.18
2024-02-19T01:58:19.356Z,4.80
2024-02-19T02:00:49.352Z,4.70
2024-02-19T02:03:21.768Z,4.53
2024-02-19T02:05:49.021Z,4.40
2024-02-19T02:08:15.962Z,3.92
2024-02-19T02:10:42.360Z,3.45
2024-02-19T02:13:09.766Z,3.83
2024-02-19T02:15:36.587Z,3.17
2024-02-19T02:18:03.230Z,3.38
2024-02-19T02:20:32.286Z,3.55
2024-02-19T02:22:59.305Z,3.17
2024-02-19T02:25:25.831Z,3.60
2024-02-19T02:27:52.309Z,3.40
2024-02-19T02:30:18.730Z,3.42
2024-02-19T02:32:45.238Z,3.17
2024-02-19T02:35:11.722Z,3.63
2024-02-19T02:37:38.097Z,3.20
2024-02-19T02:40:04.917Z,3.30
2024-02-19T02:42:31.616Z,3.50
2024-02-19T02:44:58.134Z,3.90
2024-02-19T02:47:24.516Z,4.05
2024-02-19T02:49:50.916Z,3.95
2024-02-19T02:52:17.400Z,3.97
2024-02-19T02:54:43.889Z,3.60
2024-02-19T02:57:10.267Z,3.50
2024-02-19T02:59:36.721Z,3.65
2024-02-19T03:02:03.235Z,3.10
2024-02-19T03:04:29.816Z,2.75
2024-02-19T03:06:56.366Z,2.65
2024-02-19T03:09:22.779Z,2.83
2024-02-19T03:11:49.168Z,2.47
2024-02-19T03:14:17.674Z,2.40
2024-02-19T03:16:44.046Z,2.63
2024-02-19T03:19:14.384Z,2.72
2024-02-19T03:21:43.980Z,2.60
2024-02-19T03:24:10.656Z,2.05
2024-02-19T03:26:41.260Z,1.90
2024-02-19T03:31:43.854Z,1.52
2024-02-19T03:34:11.327Z,1.70
2024-02-19T03:36:38.138Z,2.33
2024-02-19T03:39:05.681Z,2.17
2024-02-19T03:41:32.479Z,2.20
2024-02-19T03:43:59.813Z,2.13
2024-02-19T03:46:26.895Z,1.90
2024-02-19T03:48:55.109Z,2.15
2024-02-19T03:51:21.548Z,2.42
2024-02-19T03:53:47.910Z,1.90
2024-02-19T03:56:14.329Z,2.00
2024-02-19T03:58:41.330Z,1.83
2024-02-19T04:01:08.674Z,1.80
2024-02-19T04:03:35.516Z,1.95
2024-02-19T04:06:02.503Z,1.80
2024-02-19T04:08:28.898Z,1.40
2024-02-19T04:10:55.422Z,1.42
2024-02-19T04:13:21.859Z,1.40
2024-02-19T04:15:48.328Z,1.00
2024-02-19T04:18:14.817Z,1.20
2024-02-19T04:20:41.298Z,1.00
2024-02-19T04:23:07.675Z,1.00
2024-02-19T04:25:34.208Z,0.80
2024-02-19T04:28:00.775Z,0.80
2024-02-19T04:30:27.233Z,0.80
2024-02-19T04:32:54.126Z,0.70
2024-02-19T04:35:20.644Z,0.70
2024-02-19T04:37:47.098Z,0.95
2024-02-19T04:40:14.850Z,1.00
2024-02-19T04:42:41.455Z,0.80
2024-02-19T04:45:08.144Z,0.90
2024-02-19T04:47:34.603Z,1.20
2024-02-19T04:50:01.343Z,1.17
2024-02-19T04:52:27.932Z,0.90
2024-02-19T04:54:54.452Z,0.82
2024-02-19T04:57:21.271Z,0.80
2024-02-19T04:59:47.720Z,1.42
2024-02-19T05:02:14.129Z,1.00
2024-02-19T05:04:41.256Z,1.05
2024-02-19T05:07:07.797Z,1.00
2024-02-19T05:09:34.542Z,0.80
2024-02-19T05:12:00.988Z,1.15
2024-02-19T05:14:27.387Z,0.85
2024-02-19T05:16:56.020Z,1.30
2024-02-19T05:19:22.801Z,0.60
2024-02-19T05:21:49.804Z,0.55
2024-02-19T05:24:18.534Z,0.40
2024-02-19T05:26:45.180Z,0.68
2024-02-19T05:29:12.067Z,0.73
2024-02-19T05:31:39.710Z,0.90
2024-02-19T05:34:07.614Z,0.93
2024-02-19T05:36:34.651Z,1.20
2024-02-19T05:39:01.627Z,1.60
2024-02-19T05:41:28.389Z,1.65
2024-02-19T05:43:55.081Z,1.58
2024-02-19T05:46:21.602Z,1.60
2024-02-19T05:48:49.677Z,1.33
2024-02-19T05:51:16.398Z,1.60
2024-02-19T05:53:42.911Z,1.13
2024-02-19T05:56:10.320Z,1.02
2024-02-19T05:58:43.440Z,1.40
2024-02-19T06:01:10.193Z,1.20
2024-02-19T06:03:36.989Z,1.33
2024-02-19T06:06:04.350Z,1.08
2024-02-19T06:08:31.131Z,1.20
2024-02-19T06:10:58.735Z,1.38
2024-02-19T06:13:26.129Z,1.10
2024-02-19T06:15:52.864Z,1.00
2024-02-19T06:18:19.536Z,1.23
2024-02-19T06:20:48.422Z,0.90
2024-02-19T06:23:15.536Z,0.57
2024-02-19T06:25:43.507Z,0.70
2024-02-19T06:28:10.263Z,0.65
2024-02-19T06:30:36.805Z,0.47
2024-02-19T06:33:03.701Z,0.50
2024-02-19T06:35:30.279Z,0.50
2024-02-19T06:37:57.063Z,0.60
2024-02-19T06:40:23.706Z,0.47
2024-02-19T06:42:53.644Z,0.70
2024-02-19T06:45:21.196Z,0.82
2024-02-19T06:47:47.621Z,0.52
2024-02-19T06:50:14.101Z,0.70
2024-02-19T06:52:44.408Z,0.90
2024-02-19T06:55:10.934Z,0.93
2024-02-19T06:57:37.402Z,0.93
2024-02-19T07:00:04.171Z,0.68
2024-02-19T07:02:30.544Z,0.80
2024-02-19T07:04:57.287Z,0.50
2024-02-19T07:07:23.849Z,0.73
2024-02-19T07:09:52.309Z,0.63
2024-02-19T07:12:18.910Z,0.70
2024-02-19T07:14:45.294Z,0.80
2024-02-19T07:17:11.679Z,0.50
2024-02-19T07:19:38.139Z,1.02
2024-02-19T07:22:04.958Z,1.10
2024-02-19T07:24:33.908Z,0.93
2024-02-19T07:27:00.378Z,1.10
2024-02-19T07:29:27.316Z,0.90
2024-02-19T07:31:54.040Z,0.85
2024-02-19T07:34:20.663Z,0.90
2024-02-19T07:36:47.381Z,0.60
2024-02-19T07:39:15.031Z,0.75
2024-02-19T07:41:41.418Z,0.60
2024-02-19T07:44:07.971Z,0.90
2024-02-19T07:46:34.639Z,0.88
2024-02-19T07:49:01.276Z,1.00
2024-02-19T07:51:27.777Z,1.17
2024-02-19T07:53:54.144Z,1.10
2024-02-19T07:56:20.704Z,1.00
2024-02-19T07:58:47.109Z,1.35
2024-02-19T08:01:13.687Z,1.20
2024-02-19T08:03:40.234Z,1.00
2024-02-19T08:06:08.345Z,0.98
2024-02-19T08:08:34.851Z,1.23
2024-02-19T08:11:01.370Z,1.17
2024-02-19T08:13:28.008Z,1.70
2024-02-19T08:15:54.584Z,1.98
2024-02-19T08:18:21.908Z,1.30
2024-02-19T08:20:49.211Z,1.70
2024-02-19T08:23:15.647Z,2.28
2024-02-19T08:25:42.016Z,1.52
2024-02-19T08:28:08.416Z,1.08
2024-02-19T08:30:34.840Z,1.20
2024-02-19T08:33:01.377Z,1.30
2024-02-19T08:35:28.516Z,1.27
2024-02-19T08:37:56.859Z,1.30
2024-02-19T08:40:23.330Z,1.10
2024-02-19T08:42:51.226Z,1.20
2024-02-19T08:45:20.342Z,1.13
2024-02-19T08:47:48.736Z,1.30
2024-02-19T08:50:15.460Z,1.30
2024-02-19T08:52:42.109Z,1.08
2024-02-19T08:55:08.695Z,1.00
2024-02-19T08:57:35.185Z,1.30
2024-02-19T09:00:01.672Z,1.45
2024-02-19T09:02:28.356Z,1.35
2024-02-19T09:04:54.847Z,1.13
2024-02-19T09:07:21.440Z,1.02
2024-02-19T09:09:47.928Z,1.17
2024-02-19T09:12:14.672Z,0.90
2024-02-19T09:14:41.172Z,1.20
2024-02-19T09:17:08.350Z,1.52
2024-02-19T09:19:35.179Z,0.95
2024-02-19T09:22:03.380Z,1.33
2024-02-19T09:24:30.272Z,1.23
2024-02-19T09:26:56.692Z,1.63
2024-02-19T09:29:23.093Z,1.23
2024-02-19T09:31:49.581Z,1.20
2024-02-19T09:34:16.115Z,1.60
2024-02-19T09:36:46.971Z,1.85
2024-02-19T09:39:13.529Z,1.10
2024-02-19T09:41:40.654Z,1.08
2024-02-19T09:44:08.573Z,0.82
2024-02-19T09:46:36.508Z,1.25
2024-02-19T09:49:05.358Z,1.13
2024-02-19T09:51:40.877Z,1.60
2024-02-19T09:54:07.835Z,1.20
2024-02-19T09:56:35.948Z,2.20
2024-02-19T09:59:02.916Z,1.65
2024-02-19T10:01:29.502Z,2.00
2024-02-19T10:03:57.780Z,1.73
2024-02-19T10:06:33.699Z,2.17
2024-02-19T10:09:01.707Z,1.90
2024-02-19T10:11:28.341Z,1.58
2024-02-19T10:13:54.773Z,1.50
2024-02-19T10:16:21.299Z,2.28
2024-02-19T10:18:47.974Z,1.67
2024-02-19T10:21:14.403Z,1.60
2024-02-19T10:23:40.889Z,1.85
2024-02-19T10:26:08.690Z,1.60
2024-02-19T10:28:36.530Z,2.13
2024-02-19T10:31:03.089Z,1.17
2024-02-19T10:33:29.602Z,1.98
2024-02-19T10:35:56.423Z,2.08
2024-02-19T10:38:23.319Z,1.52
2024-02-19T10:40:49.885Z,1.65
2024-02-19T10:43:19.018Z,1.42
2024-02-19T10:45:48.357Z,1.13
2024-02-19T10:48:15.732Z,1.85
2024-02-19T10:50:42.174Z,1.92
2024-02-19T10:53:08.671Z,1.50
2024-02-19T10:55:49.656Z,1.40
2024-02-19T10:58:26.217Z,1.85
2024-02-19T11:00:54.543Z,1.60
2024-02-19T11:03:22.074Z,1.98
2024-02-19T11:05:48.590Z,2.05
2024-02-19T11:08:22.973Z,2.63
2024-02-19T11:10:51.020Z,3.00
2024-02-19T11:13:23.209Z,3.30
2024-02-19T11:15:49.909Z,2.92
2024-02-19T11:18:18.276Z,2.70
2024-02-19T11:20:45.933Z,2.63
2024-02-19T11:23:12.981Z,3.63
2024-02-19T11:25:40.307Z,3.13
2024-02-19T11:28:07.550Z,2.80
2024-02-19T11:30:34.010Z,3.90
2024-02-19T11:33:04.464Z,3.45
2024-02-19T11:35:34.519Z,3.35
2024-02-19T11:38:03.921Z,3.97
2024-02-19T11:40:33.552Z,3.30
2024-02-19T11:43:02.114Z,3.40
2024-02-19T11:45:30.195Z,2.72
2024-02-19T11:47:57.826Z,3.03
2024-02-19T11:50:31.228Z,2.50
2024-02-19T11:53:01.528Z,2.40
2024-02-19T11:55:31.653Z,2.22
2024-02-19T11:58:01.798Z,2.65
2024-02-19T12:00:32.688Z,1.83
2024-02-19T12:03:00.051Z,1.75
2024-02-19T12:05:27.703Z,1.92
2024-02-19T12:07:54.440Z,1.65
2024-02-19T12:10:20.905Z,1.73
2024-02-19T12:12:47.952Z,1.60
2024-02-19T12:15:20.382Z,1.55
2024-02-19T12:17:49.581Z,2.10
2024-02-19T12:20:16.594Z,1.30
2024-02-19T12:22:43.346Z,1.70
2024-02-19T12:25:12.619Z,1.23
2024-02-19T12:27:39.152Z,1.48
2024-02-19T12:30:06.568Z,1.67
2024-02-19T12:32:33.439Z,1.88
2024-02-19T12:35:00.587Z,2.03
2024-02-19T12:37:29.943Z,1.60
2024-02-19T12:39:56.889Z,2.28
2024-02-19T12:42:23.388Z,1.73
2024-02-19T12:44:49.745Z,1.70
2024-02-19T12:47:16.217Z,2.05
2024-02-19T12:49:42.809Z,1.70
2024-02-19T12:52:11.101Z,1.67
2024-02-19T12:54:37.575Z,1.70
2024-02-19T12:57:06.889Z,1.70
2024-02-19T12:59:33.279Z,1.80
2024-02-19T13:01:59.817Z,2.47
2024-02-19T13:04:27.576Z,1.88
2024-02-19T13:06:57.016Z,1.80
2024-02-19T13:09:23.662Z,2.72
2024-02-19T13:11:50.146Z,2.75
2024-02-19T13:14:16.542Z,2.15
2024-02-19T13:16:43.503Z,2.00
2024-02-19T13:19:11.166Z,1.80
2024-02-19T13:21:37.689Z,2.80
2024-02-19T13:24:04.365Z,2.25
2024-02-19T13:26:30.751Z,2.20
2024-02-19T13:28:57.249Z,2.58
2024-02-19T13:31:23.979Z,2.30
2024-02-19T13:33:50.524Z,2.40
2024-02-19T13:36:17.700Z,2.20
2024-02-19T13:38:44.472Z,2.60
2024-02-19T13:41:13.833Z,2.88
2024-02-19T13:43:41.959Z,2.55
2024-02-19T13:46:08.851Z,2.67
2024-02-19T13:48:35.888Z,2.63
2024-02-19T13:51:02.676Z,3.00
2024-02-19T13:53:30.556Z,2.90
2024-02-19T13:56:00.646Z,2.38
2024-02-19T13:58:28.828Z,2.10
2024-02-19T14:00:57.666Z,2.17
2024-02-19T14:03:25.113Z,1.50
2024-02-19T14:05:51.993Z,1.42
2024-02-19T14:08:20.273Z,1.60
2024-02-19T14:10:48.421Z,1.63
2024-02-19T14:13:16.493Z,0.85
2024-02-19T14:15:42.999Z,1.02
2024-02-19T14:18:09.480Z,1.60
2024-02-19T14:20:35.972Z,0.90
2024-02-19T14:23:03.472Z,0.88
2024-02-19T14:25:30.888Z,0.90
2024-02-19T14:27:57.920Z,1.00
2024-02-19T14:30:24.316Z,0.93
2024-02-19T14:32:50.773Z,1.15
2024-02-19T14:35:17.466Z,0.80
2024-02-19T14:37:45.025Z,1.15
2024-02-19T14:40:14.850Z,0.82
2024-02-19T14:42:42.453Z,0.57
2024-02-19T14:45:09.362Z,0.70
2024-02-19T14:47:38.199Z,1.05
2024-02-19T14:50:06.137Z,0.73
2024-02-19T14:52:34.151Z,0.95
2024-02-19T14:55:02.193Z,0.77
2024-02-19T14:57:30.048Z,2.47
2024-02-19T14:59:56.427Z,1.00
2024-02-19T15:02:23.256Z,0.98
2024-02-19T15:04:49.902Z,1.00
2024-02-19T15:07:16.493Z,1.13
2024-02-19T15:09:43.352Z,0.98
2024-02-19T15:12:10.376Z,0.93
2024-02-19T15:14:36.810Z,1.13
2024-02-19T15:17:04.250Z,1.02
2024-02-19T15:19:30.702Z,1.95
2024-02-19T15:21:57.196Z,1.40
2024-02-19T15:24:23.575Z,1.15
2024-02-19T15:26:50.405Z,1.10
2024-02-19T15:29:18.203Z,1.33
2024-02-19T15:31:44.616Z,1.40
2024-02-19T15:34:11.056Z,1.70
2024-02-19T15:36:37.557Z,1.75
2024-02-19T15:39:04.009Z,2.35
2024-02-19T15:41:32.656Z,1.70
2024-02-19T15:43:59.944Z,1.23
2024-02-19T15:46:26.641Z,1.25
2024-02-19T15:48:53.117Z,1.80
2024-02-19T15:51:19.550Z,1.75
2024-02-19T15:53:46.012Z,1.63
2024-02-19T15:56:12.416Z,2.03
2024-02-19T15:58:40.147Z,1.40
2024-02-19T16:01:07.696Z,2.00
2024-02-19T16:03:34.262Z,2.00
2024-02-19T16:06:01.291Z,1.83
2024-02-19T16:08:33.734Z,1.80
2024-02-19T16:11:04.468Z,1.83
2024-02-19T16:13:32.407Z,2.10
2024-02-19T16:15:59.751Z,2.20
2024-02-19T16:18:27.267Z,2.17
2024-02-19T16:20:53.740Z,2.67
2024-02-19T16:23:20.145Z,2.80
2024-02-19T16:25:46.653Z,3.10
2024-02-19T16:28:13.472Z,2.72
2024-02-19T16:30:39.856Z,2.83
2024-02-19T16:33:06.392Z,3.03
2024-02-19T16:35:32.900Z,3.00
2024-02-19T16:37:59.344Z,3.75
2024-02-19T16:40:26.553Z,2.72
2024-02-19T16:42:54.037Z,3.20
2024-02-19T16:45:20.623Z,3.17
2024-02-19T16:47:47.058Z,4.07
2024-02-19T16:50:13.491Z,3.55
2024-02-19T16:52:39.922Z,3.22
2024-02-19T16:55:09.519Z,3.60
2024-02-19T16:57:36.178Z,3.92
2024-02-19T17:00:04.268Z,3.30
2024-02-19T17:02:31.037Z,3.92
2024-02-19T17:04:57.512Z,3.35
2024-02-19T17:07:24.396Z,3.17
2024-02-19T17:09:51.116Z,2.95
2024-02-19T17:12:17.593Z,4.05
2024-02-19T17:14:45.857Z,3.95
2024-02-19T17:17:12.791Z,4.13
2024-02-19T17:19:39.328Z,3.80
2024-02-19T17:22:06.044Z,4.32
2024-02-19T17:24:37.776Z,3.85
2024-02-19T17:27:04.687Z,4.03
2024-02-19T17:29:31.158Z,4.25
2024-02-19T17:31:57.870Z,5.13
2024-02-19T17:34:28.082Z,5.32
2024-02-19T17:36:54.751Z,4.70
2024-02-19T17:39:24.784Z,4.78
2024-02-19T17:41:51.182Z,5.78
2024-02-19T17:44:17.674Z,5.45
2024-02-19T17:46:44.230Z,5.70
2024-02-19T17:49:14.358Z,6.40
2024-02-19T17:51:41.271Z,6.78
2024-02-19T17:54:10.803Z,6.47
2024-02-19T17:56:40.743Z,7.03
2024-02-19T17:59:12.364Z,7.00
2024-02-19T18:01:39.772Z,6.93
2024-02-19T18:04:06.494Z,6.32
2024-02-19T18:06:35.183Z,6.22
2024-02-19T18:09:03.947Z,5.53
2024-02-19T18:11:30.678Z,5.82
2024-02-19T18:13:57.566Z,5.70
2024-02-19T18:16:24.003Z,5.57
2024-02-19T18:18:50.568Z,5.60
2024-02-19T18:21:21.426Z,5.45
2024-02-19T18:23:48.489Z,5.68
2024-02-19T18:26:15.016Z,5.47
2024-02-19T18:28:41.424Z,5.53
2024-02-19T18:31:11.777Z,4.80
2024-02-19T18:33:38.522Z,4.72
2024-02-19T18:36:06.045Z,4.95
2024-02-19T18:38:34.488Z,4.63
2024-02-19T18:41:03.462Z,4.80
2024-02-19T18:43:30.441Z,4.90
2024-02-19T18:45:56.956Z,4.93
2024-02-19T18:48:24.288Z,4.38
2024-02-19T18:50:51.304Z,4.18
2024-02-19T18:53:17.792Z,4.22
2024-02-19T18:55:45.140Z,4.10
2024-02-19T18:58:11.574Z,4.72
2024-02-19T19:00:38.063Z,5.35
2024-02-19T19:03:04.585Z,3.83
2024-02-19T19:05:31.603Z,3.95
2024-02-19T19:07:59.002Z,3.35
2024-02-19T19:10:25.786Z,3.70
2024-02-19T19:12:52.364Z,3.80
2024-02-19T19:15:18.845Z,4.13
2024-02-19T19:17:46.168Z,3.83
2024-02-19T19:20:12.917Z,3.85
2024-02-19T19:22:39.993Z,4.40
2024-02-19T19:25:07.999Z,3.60
2024-02-19T19:27:34.876Z,4.15
2024-02-19T19:30:01.395Z,3.47
2024-02-19T19:32:30.067Z,3.63
2024-02-19T19:34:57.122Z,3.83
2024-02-19T19:37:25.550Z,3.80
2024-02-19T19:39:52.342Z,3.53
2024-02-19T19:42:19.929Z,3.90
2024-02-19T19:44:46.376Z,3.88
2024-02-19T19:47:12.808Z,4.28
2024-02-19T19:49:39.284Z,4.45
2024-02-19T19:52:05.840Z,4.05
2024-02-19T19:54:32.253Z,4.10
2024-02-19T19:56:58.693Z,4.05
2024-02-19T19:59:27.288Z,4.05
2024-02-19T20:01:53.868Z,4.32
2024-02-19T20:04:20.852Z,4.63
2024-02-19T20:06:47.572Z,3.88
2024-02-19T20:09:14.178Z,4.40
2024-02-19T20:11:40.696Z,4.70
2024-02-19T20:14:07.117Z,5.75
2024-02-19T20:16:36.546Z,4.80
2024-02-19T20:19:03.017Z,4.88
2024-02-19T20:21:29.434Z,3.88
2024-02-19T20:23:56.097Z,4.18
2024-02-19T20:26:22.547Z,4.22
2024-02-19T20:28:49.632Z,4.10
2024-02-19T20:31:16.054Z,4.40
2024-02-19T20:33:42.616Z,4.38
2024-02-19T20:36:09.305Z,4.35
2024-02-19T20:38:35.753Z,3.78
2024-02-19T20:41:03.938Z,3.90
2024-02-19T20:43:30.438Z,4.40
2024-02-19T20:45:56.986Z,4.93
2024-02-19T20:48:24.293Z,3.63
2024-02-19T20:50:50.863Z,4.22
2024-02-19T20:53:17.281Z,4.10
2024-02-19T20:55:43.755Z,4.35
2024-02-19T20:58:10.457Z,3.92
2024-02-19T21:00:36.984Z,4.55
2024-02-19T21:03:03.997Z,4.10
2024-02-19T21:05:30.429Z,4.60
2024-02-19T21:07:56.996Z,4.72
2024-02-19T21:10:23.716Z,4.25
2024-02-19T21:12:51.227Z,5.13
2024-02-19T21:15:17.840Z,4.50
2024-02-19T21:17:44.240Z,4.25
2024-02-19T21:20:12.129Z,4.97
2024-02-19T21:22:39.326Z,4.90
2024-02-19T21:25:06.400Z,4.22
2024-02-19T21:27:32.913Z,4.55
2024-02-19T21:29:59.349Z,5.15
2024-02-19T21:32:30.040Z,4.78
2024-02-19T21:34:58.222Z,5.53
2024-02-19T21:37:27.440Z,6.50
2024-02-19T21:39:53.945Z,5.20
2024-02-19T21:42:25.669Z,5.00
2024-02-19T21:44:52.500Z,5.30
2024-02-19T21:47:19.066Z,5.63
2024-02-19T21:49:46.368Z,5.18
2024-02-19T21:52:13.113Z,4.93
2024-02-19T21:54:39.809Z,4.65
2024-02-19T21:57:06.238Z,4.43
2024-02-19T21:59:32.667Z,4.75
2024-02-19T22:01:59.676Z,4.43
2024-02-19T22:04:26.336Z,4.93
2024-02-19T22:06:52.811Z,4.53
2024-02-19T22:09:19.207Z,4.63
2024-02-19T22:11:45.738Z,3.28
2024-02-19T22:14:12.895Z,3.78
2024-02-19T22:16:39.372Z,2.53
2024-02-19T22:19:05.808Z,2.30
2024-02-19T22:21:32.294Z,2.97
2024-02-19T22:23:58.740Z,2.13
2024-02-19T22:26:25.129Z,2.60
2024-02-19T22:28:52.345Z,2.45
2024-02-19T22:31:18.734Z,2.45
2024-02-19T22:33:45.242Z,2.45
2024-02-19T22:36:11.721Z,1.90
2024-02-19T22:38:38.983Z,1.90
2024-02-19T22:41:05.372Z,1.70
2024-02-19T22:43:31.782Z,1.58
2024-02-19T22:45:58.721Z,1.30
2024-02-19T22:48:25.608Z,1.40
2024-02-19T22:50:52.050Z,1.88
2024-02-19T22:53:19.413Z,1.10
2024-02-19T22:55:45.979Z,1.00
2024-02-19T22:58:17.768Z,1.45
2024-02-19T23:00:50.204Z,1.10
2024-02-19T23:03:16.863Z,1.20
2024-02-19T23:05:44.086Z,1.27
2024-02-19T23:08:10.888Z,2.08
2024-02-19T23:10:37.293Z,1.23
2024-02-19T23:13:04.667Z,1.17
2024-02-19T23:15:31.542Z,1.55
2024-02-19T23:17:58.512Z,1.55
2024-02-19T23:20:25.026Z,1.33
2024-02-19T23:22:51.541Z,1.27
2024-02-19T23:25:18.401Z,1.40
2024-02-19T23:27:44.860Z,1.55
2024-02-19T23:30:12.591Z,1.50
2024-02-19T23:32:39.183Z,1.48
2024-02-19T23:35:07.653Z,1.95
2024-02-19T23:37:34.226Z,1.55
2024-02-19T23:40:01.118Z,2.58
2024-02-19T23:42:27.812Z,1.70
2024-02-19T23:44:54.331Z,1.90
2024-02-19T23:47:20.989Z,1.63
2024-02-19T23:49:47.782Z,1.73
2024-02-19T23:52:14.637Z,1.77
2024-02-19T23:54:41.184Z,1.23
2024-02-19T23:57:08.589Z,1.50
2024-02-19T23:59:35.426Z,1.45
